createdAt,value
2023-03-21T00:00:43.999Z,2.60
2023-03-21T00:03:12.211Z,2.63
2023-03-21T00:05:45.851Z,2.66
2023-03-21T00:08:13.642Z,2.63
2023-03-21T00:10:43.649Z,2.68
2023-03-21T00:13:13.478Z,2.69
2023-03-21T00:16:04.803Z,2.65
2023-03-21T00:18:42.327Z,2.75
2023-03-21T00:21:39.556Z,2.73
2023-03-21T00:24:04.184Z,2.75
2023-03-21T00:26:32.428Z,2.74
2023-03-21T00:29:00.164Z,2.76
2023-03-21T00:31:27.960Z,2.73
2023-03-21T00:33:55.748Z,2.69
2023-03-21T00:36:26.253Z,2.69
2023-03-21T00:38:54.775Z,2.68
2023-03-21T00:41:39.253Z,2.65
2023-03-21T00:44:11.844Z,2.64
2023-03-21T00:46:47.235Z,2.61
2023-03-21T00:49:21.984Z,2.59
2023-03-21T00:51:51.520Z,2.61
2023-03-21T00:54:19.740Z,2.60
2023-03-21T00:56:47.502Z,2.61
2023-03-21T00:59:15.545Z,2.61
2023-03-21T01:01:46.938Z,2.59
2023-03-21T01:04:17.130Z,2.60
2023-03-21T01:06:45.073Z,2.60
2023-03-21T01:09:24.687Z,2.60
2023-03-21T01:11:52.860Z,2.60
2023-03-21T01:14:23.850Z,2.63
2023-03-21T01:16:53.416Z,2.62
2023-03-21T01:19:35.199Z,2.60
2023-03-21T01:22:10.877Z,2.58
2023-03-21T01:24:46.835Z,2.58
2023-03-21T01:27:20.277Z,2.59
2023-03-21T01:29:49.829Z,2.57
2023-03-21T01:32:17.692Z,2.58
2023-03-21T01:34:45.665Z,2.58
2023-03-21T01:37:14.584Z,2.60
2023-03-21T01:39:47.764Z,2.57
2023-03-21T01:42:15.706Z,2.51
2023-03-21T01:45:01.904Z,2.48
2023-03-21T01:47:49.826Z,2.46
2023-03-21T01:50:27.195Z,2.45
2023-03-21T01:53:24.436Z,2.47
2023-03-21T01:55:52.351Z,2.42
2023-03-21T01:58:43.796Z,2.39
2023-03-21T02:01:50.882Z,2.38
2023-03-21T02:04:28.199Z,2.39
2023-03-21T02:07:18.999Z,2.38
2023-03-21T02:09:52.777Z,2.39
2023-03-21T02:12:23.710Z,2.37
2023-03-21T02:14:52.426Z,2.36
2023-03-21T02:17:58.462Z,2.33
2023-03-21T02:21:19.441Z,2.29
2023-03-21T02:24:08.070Z,2.27
2023-03-21T02:26:45.003Z,2.24
2023-03-21T02:29:31.198Z,2.19
2023-03-21T02:32:16.446Z,2.21
2023-03-21T02:35:09.466Z,2.18
2023-03-21T02:37:55.230Z,2.21
2023-03-21T02:40:52.882Z,2.21
2023-03-21T02:43:52.764Z,2.24
2023-03-21T02:46:42.880Z,2.23
2023-03-21T02:49:22.164Z,2.21
2023-03-21T02:51:51.126Z,2.22
2023-03-21T02:54:34.970Z,2.23
2023-03-21T02:57:10.605Z,2.22
2023-03-21T02:59:51.645Z,2.22
2023-03-21T03:02:27.789Z,2.24
2023-03-21T03:04:55.797Z,2.25
2023-03-21T03:08:08.125Z,2.25
2023-03-21T03:10:56.724Z,2.26
2023-03-21T03:13:42.493Z,2.27
2023-03-21T03:16:22.330Z,2.28
2023-03-21T03:18:54.521Z,2.27
2023-03-21T03:21:40.087Z,2.29
2023-03-21T03:24:17.175Z,2.28
2023-03-21T03:27:04.179Z,2.25
2023-03-21T03:29:35.242Z,2.24
2023-03-21T03:32:18.673Z,2.26
2023-03-21T03:34:56.297Z,2.22
2023-03-21T03:37:33.001Z,2.23
2023-03-21T03:40:06.474Z,2.24
2023-03-21T03:42:37.541Z,2.27
2023-03-21T03:45:16.601Z,2.26
2023-03-21T03:47:57.262Z,2.26
2023-03-21T03:50:36.914Z,2.25
2023-03-21T03:53:20.573Z,2.28
2023-03-21T03:55:51.927Z,2.25
2023-03-21T03:58:24.780Z,2.27
2023-03-21T04:00:57.349Z,2.24
2023-03-21T04:03:25.304Z,2.24
2023-03-21T04:05:54.246Z,2.26
2023-03-21T04:08:23.507Z,2.31
2023-03-21T04:10:55.071Z,2.33
2023-03-21T04:13:23.716Z,2.34
2023-03-21T04:16:08.879Z,2.36
2023-03-21T04:18:38.532Z,2.34
2023-03-21T04:21:12.999Z,2.34
2023-03-21T04:23:42.230Z,2.42
2023-03-21T04:26:10.113Z,2.42
2023-03-21T04:28:43.877Z,2.47
2023-03-21T04:31:31.553Z,2.49
2023-03-21T04:34:10.204Z,2.52
2023-03-21T04:36:46.825Z,2.56
2023-03-21T04:39:18.774Z,2.55
2023-03-21T04:41:50.076Z,2.57
2023-03-21T04:44:18.555Z,2.63
2023-03-21T04:46:47.356Z,2.67
2023-03-21T04:49:15.485Z,2.70
2023-03-21T04:51:47.724Z,2.83
2023-03-21T04:54:21.180Z,2.82
2023-03-21T04:56:49.324Z,2.90
2023-03-21T04:59:17.353Z,2.96
2023-03-21T05:01:45.612Z,2.98
2023-03-21T05:04:14.791Z,3.03
2023-03-21T05:06:43.987Z,3.07
2023-03-21T05:09:12.880Z,3.15
2023-03-21T05:11:41.370Z,3.22
2023-03-21T05:14:12.659Z,3.22
2023-03-21T05:16:48.836Z,3.21
2023-03-21T05:19:19.220Z,3.20
2023-03-21T05:21:48.948Z,3.23
2023-03-21T05:24:22.458Z,3.25
2023-03-21T05:26:52.411Z,3.31
2023-03-21T05:29:23.679Z,3.33
2023-03-21T05:31:59.852Z,3.41
2023-03-21T05:34:28.366Z,3.47
2023-03-21T05:36:56.409Z,3.61
2023-03-21T05:39:27.167Z,3.74
2023-03-21T05:42:09.879Z,3.88
2023-03-21T05:44:40.529Z,4.04
2023-03-21T05:47:10.320Z,4.19
2023-03-21T05:49:43.710Z,4.37
2023-03-21T05:52:12.272Z,4.53
2023-03-21T05:54:40.056Z,4.65
2023-03-21T05:57:08.663Z,4.81
2023-03-21T05:59:52.999Z,4.87
2023-03-21T06:02:21.083Z,5.06
2023-03-21T06:04:50.092Z,5.21
2023-03-21T06:07:21.836Z,5.29
2023-03-21T06:09:51.099Z,5.40
2023-03-21T06:12:18.943Z,5.46
2023-03-21T06:15:12.345Z,5.52
2023-03-21T06:17:56.970Z,5.57
2023-03-21T06:20:24.785Z,5.64
2023-03-21T06:22:57.060Z,5.70
2023-03-21T06:25:24.873Z,5.68
2023-03-21T06:27:52.740Z,5.82
2023-03-21T06:30:21.645Z,5.93
2023-03-21T06:33:15.853Z,5.90
2023-03-21T06:35:45.101Z,5.78
2023-03-21T06:38:12.902Z,5.80
2023-03-21T06:40:41.001Z,5.78
2023-03-21T06:43:08.806Z,5.81
2023-03-21T06:45:36.940Z,5.76
2023-03-21T06:48:07.474Z,5.81
2023-03-21T06:50:51.464Z,5.90
2023-03-21T06:53:24.444Z,5.94
2023-03-21T06:56:13.661Z,6.03
2023-03-21T06:58:42.841Z,6.20
2023-03-21T07:01:18.920Z,6.31
2023-03-21T07:03:59.057Z,6.51
2023-03-21T07:06:28.728Z,6.87
2023-03-21T07:08:57.099Z,7.08
2023-03-21T07:11:26.135Z,7.40
2023-03-21T07:13:54.533Z,7.68
2023-03-21T07:16:25.160Z,7.68
2023-03-21T07:18:53.179Z,7.67
2023-03-21T07:21:21.048Z,7.83
2023-03-21T07:23:50.401Z,8.05
2023-03-21T07:26:18.612Z,8.20
2023-03-21T07:28:46.809Z,8.18
2023-03-21T07:31:16.461Z,8.30
2023-03-21T07:33:44.222Z,8.55
2023-03-21T07:36:16.436Z,9.08
2023-03-21T07:38:46.498Z,9.25
2023-03-21T07:43:44.431Z,8.94
2023-03-21T07:46:31.208Z,8.80
2023-03-21T07:49:01.198Z,8.70
2023-03-21T07:51:30.834Z,8.63
2023-03-21T07:53:58.630Z,8.37
2023-03-21T07:56:26.542Z,8.20
2023-03-21T07:58:54.427Z,8.06
2023-03-21T08:01:22.212Z,7.92
2023-03-21T08:03:51.497Z,7.93
2023-03-21T08:06:20.831Z,7.88
2023-03-21T08:08:48.713Z,7.98
2023-03-21T08:11:16.545Z,8.06
2023-03-21T08:13:44.429Z,8.15
2023-03-21T08:16:12.078Z,8.23
2023-03-21T08:18:39.754Z,8.18
2023-03-21T08:21:09.618Z,8.13
2023-03-21T08:23:37.455Z,8.24
2023-03-21T08:26:05.436Z,8.27
2023-03-21T08:28:33.178Z,8.08
2023-03-21T08:31:01.095Z,8.17
2023-03-21T08:33:29.103Z,8.27
2023-03-21T08:36:00.250Z,8.30
2023-03-21T08:38:34.755Z,8.30
2023-03-21T08:41:02.793Z,8.22
2023-03-21T08:43:31.058Z,8.08
2023-03-21T08:45:59.192Z,7.90
2023-03-21T08:48:27.094Z,7.76
2023-03-21T08:50:54.952Z,7.51
2023-03-21T08:53:22.660Z,7.41
2023-03-21T08:55:50.540Z,7.46
2023-03-21T08:58:18.384Z,7.49
2023-03-21T09:00:46.379Z,7.43
2023-03-21T09:03:14.214Z,7.51
2023-03-21T09:05:41.988Z,7.59
2023-03-21T09:08:09.711Z,7.64
2023-03-21T09:10:37.614Z,7.81
2023-03-21T09:13:05.527Z,8.00
2023-03-21T09:15:33.459Z,8.19
2023-03-21T09:18:13.185Z,8.11
2023-03-21T09:20:43.267Z,8.00
2023-03-21T09:23:12.212Z,8.00
2023-03-21T09:25:41.491Z,8.00
2023-03-21T09:28:09.871Z,8.01
2023-03-21T09:30:37.906Z,7.69
2023-03-21T09:33:19.431Z,7.60
2023-03-21T09:35:47.358Z,7.79
2023-03-21T09:38:15.334Z,7.89
2023-03-21T09:40:55.326Z,7.85
2023-03-21T09:43:35.984Z,7.80
2023-03-21T09:46:22.259Z,7.76
2023-03-21T09:49:04.839Z,7.94
2023-03-21T09:51:46.300Z,7.99
2023-03-21T09:54:19.221Z,8.17
2023-03-21T09:56:47.891Z,8.32
2023-03-21T09:59:26.379Z,8.46
2023-03-21T10:01:55.579Z,8.43
2023-03-21T10:04:24.814Z,8.28
2023-03-21T10:06:58.664Z,8.21
2023-03-21T10:09:27.387Z,8.29
2023-03-21T10:12:15.619Z,8.41
2023-03-21T10:14:49.515Z,8.47
2023-03-21T10:17:45.299Z,8.49
2023-03-21T10:20:24.800Z,8.35
2023-03-21T10:22:55.015Z,8.20
2023-03-21T10:25:28.972Z,8.16
2023-03-21T10:27:56.661Z,8.30
2023-03-21T10:30:35.300Z,8.52
2023-03-21T10:33:07.363Z,8.83
2023-03-21T10:35:37.575Z,9.05
2023-03-21T10:38:06.728Z,9.06
2023-03-21T10:40:35.510Z,9.05
2023-03-21T10:43:26.102Z,9.14
2023-03-21T10:45:57.163Z,9.11
2023-03-21T10:48:25.837Z,9.02
2023-03-21T10:50:55.378Z,8.87
2023-03-21T10:53:35.831Z,8.77
2023-03-21T10:56:07.855Z,8.73
2023-03-21T10:58:42.926Z,8.77
2023-03-21T11:01:15.236Z,8.97
2023-03-21T11:03:44.822Z,9.13
2023-03-21T11:06:27.935Z,9.07
2023-03-21T11:09:00.792Z,8.93
2023-03-21T11:11:40.680Z,8.92
2023-03-21T11:14:24.253Z,8.90
2023-03-21T11:16:52.249Z,8.88
2023-03-21T11:19:28.926Z,8.78
2023-03-21T11:22:04.638Z,8.64
2023-03-21T11:24:33.044Z,8.50
2023-03-21T11:27:01.831Z,8.38
2023-03-21T11:29:34.896Z,8.33
2023-03-21T11:32:10.340Z,8.41
2023-03-21T11:34:47.755Z,8.46
2023-03-21T11:37:38.857Z,8.29
2023-03-21T11:40:23.327Z,8.19
2023-03-21T11:43:17.094Z,8.07
2023-03-21T11:45:58.786Z,7.93
2023-03-21T11:48:27.231Z,7.88
2023-03-21T11:51:03.445Z,7.89
2023-03-21T11:53:41.958Z,7.88
2023-03-21T11:56:38.340Z,7.87
2023-03-21T11:59:24.960Z,7.87
2023-03-21T12:02:01.833Z,7.80
2023-03-21T12:04:35.326Z,7.77
2023-03-21T12:07:16.428Z,7.71
2023-03-21T12:10:08.307Z,7.63
2023-03-21T12:12:51.146Z,7.68
2023-03-21T12:15:21.807Z,7.67
2023-03-21T12:17:55.738Z,7.67
2023-03-21T12:20:36.565Z,7.77
2023-03-21T12:23:13.073Z,7.84
2023-03-21T12:26:00.934Z,7.82
2023-03-21T12:28:40.655Z,7.79
2023-03-21T12:31:25.444Z,7.72
2023-03-21T12:34:12.007Z,7.65
2023-03-21T12:37:01.835Z,7.58
2023-03-21T12:39:31.925Z,7.50
2023-03-21T12:42:19.893Z,7.45
2023-03-21T12:45:11.540Z,7.52
2023-03-21T12:47:45.982Z,7.55
2023-03-21T12:50:33.573Z,7.62
2023-03-21T12:53:15.099Z,7.59
2023-03-21T12:55:43.044Z,7.43
2023-03-21T12:58:18.982Z,7.41
2023-03-21T13:01:03.334Z,7.37
2023-03-21T13:03:43.940Z,7.30
2023-03-21T13:06:15.856Z,7.26
2023-03-21T13:09:01.043Z,7.25
2023-03-21T13:11:31.106Z,7.21
2023-03-21T13:14:04.916Z,7.23
2023-03-21T13:16:38.726Z,7.27
2023-03-21T13:19:09.556Z,7.32
2023-03-21T13:21:59.040Z,7.36
2023-03-21T13:24:27.334Z,7.41
2023-03-21T13:27:07.215Z,7.42
2023-03-21T13:29:47.889Z,7.39
2023-03-21T13:32:31.985Z,7.42
2023-03-21T13:35:02.093Z,7.39
2023-03-21T13:37:34.975Z,7.37
2023-03-21T13:40:10.951Z,7.33
2023-03-21T13:42:46.234Z,7.38
2023-03-21T13:45:28.362Z,7.42
2023-03-21T13:48:07.529Z,7.38
2023-03-21T13:50:54.830Z,7.38
2023-03-21T13:53:23.586Z,7.38
2023-03-21T13:56:22.236Z,7.41
2023-03-21T13:58:54.297Z,7.37
2023-03-21T14:01:31.623Z,7.33
2023-03-21T14:04:26.498Z,7.35
2023-03-21T14:07:04.648Z,7.32
2023-03-21T14:09:47.369Z,7.29
2023-03-21T14:12:17.661Z,7.34
2023-03-21T14:15:27.836Z,7.32
2023-03-21T14:17:56.875Z,7.29
2023-03-21T14:20:31.851Z,7.27
2023-03-21T14:23:00.100Z,7.25
2023-03-21T14:25:40.743Z,7.29
2023-03-21T14:28:25.307Z,7.27
2023-03-21T14:30:55.590Z,7.21
2023-03-21T14:33:36.519Z,7.16
2023-03-21T14:36:09.032Z,7.11
2023-03-21T14:38:39.194Z,7.08
2023-03-21T14:41:26.286Z,7.04
2023-03-21T14:44:09.208Z,7.02
2023-03-21T14:46:37.109Z,7.03
2023-03-21T14:49:28.260Z,7.12
2023-03-21T14:51:59.383Z,7.23
2023-03-21T14:54:27.667Z,7.33
2023-03-21T14:57:00.884Z,7.44
2023-03-21T14:59:33.656Z,7.48
2023-03-21T15:02:05.639Z,7.49
2023-03-21T15:04:33.497Z,7.46
2023-03-21T15:07:05.212Z,7.42
2023-03-21T15:09:35.231Z,7.37
2023-03-21T15:12:08.591Z,7.32
2023-03-21T15:14:38.012Z,7.25
2023-03-21T15:17:07.683Z,7.15
2023-03-21T15:19:40.079Z,7.17
2023-03-21T15:22:10.855Z,7.12
2023-03-21T15:24:44.532Z,7.05
2023-03-21T15:27:17.823Z,6.98
2023-03-21T15:29:46.225Z,6.93
2023-03-21T15:32:17.068Z,6.85
2023-03-21T15:34:45.633Z,6.77
2023-03-21T15:37:19.139Z,6.82
2023-03-21T15:39:49.326Z,6.80
2023-03-21T15:42:27.607Z,6.88
2023-03-21T15:44:57.610Z,6.94
2023-03-21T15:48:03.202Z,6.95
2023-03-21T15:50:38.199Z,6.97
2023-03-21T15:53:13.273Z,6.95
2023-03-21T15:55:48.314Z,7.00
2023-03-21T15:58:34.656Z,6.95
2023-03-21T16:01:06.662Z,6.97
2023-03-21T16:03:40.734Z,6.96
2023-03-21T16:06:11.501Z,6.97
2023-03-21T16:08:51.451Z,6.92
2023-03-21T16:11:28.530Z,6.89
2023-03-21T16:13:56.969Z,6.85
2023-03-21T16:16:27.551Z,6.84
2023-03-21T16:18:56.853Z,6.84
2023-03-21T16:21:28.703Z,6.86
2023-03-21T16:23:58.335Z,6.93
2023-03-21T16:26:32.243Z,6.89
2023-03-21T16:29:00.497Z,6.90
2023-03-21T16:31:31.135Z,6.92
2023-03-21T16:33:59.363Z,6.92
2023-03-21T16:36:29.952Z,6.90
2023-03-21T16:38:58.205Z,6.96
2023-03-21T16:41:27.821Z,6.94
2023-03-21T16:43:55.654Z,6.91
2023-03-21T16:46:25.991Z,6.95
2023-03-21T16:48:57.054Z,6.91
2023-03-21T16:51:30.505Z,6.93
2023-03-21T16:53:58.286Z,6.97
2023-03-21T16:56:55.692Z,6.95
2023-03-21T16:59:23.709Z,6.93
2023-03-21T17:01:51.868Z,6.90
2023-03-21T17:04:19.617Z,6.91
2023-03-21T17:06:50.173Z,6.92
2023-03-21T17:09:21.220Z,6.91
2023-03-21T17:11:49.780Z,6.92
2023-03-21T17:14:18.853Z,6.94
2023-03-21T17:16:46.767Z,6.94
2023-03-21T17:19:17.260Z,6.89
2023-03-21T17:21:45.778Z,6.90
2023-03-21T17:24:14.048Z,6.93
2023-03-21T17:26:41.917Z,6.92
2023-03-21T17:29:13.093Z,6.89
2023-03-21T17:31:41.165Z,6.86
2023-03-21T17:34:09.957Z,6.83
2023-03-21T17:36:39.652Z,6.80
2023-03-21T17:39:09.146Z,6.84
2023-03-21T17:41:36.958Z,6.84
2023-03-21T17:44:04.827Z,6.81
2023-03-21T17:46:37.211Z,6.77
2023-03-21T17:49:05.847Z,6.75
2023-03-21T17:51:33.756Z,6.74
2023-03-21T17:54:01.710Z,6.68
2023-03-21T17:56:31.416Z,6.62
2023-03-21T17:59:07.494Z,6.56
2023-03-21T18:01:35.646Z,6.52
2023-03-21T18:04:05.282Z,6.48
2023-03-21T18:06:34.447Z,6.45
2023-03-21T18:09:07.167Z,6.43
2023-03-21T18:11:35.020Z,6.38
2023-03-21T18:14:15.473Z,6.36
2023-03-21T18:16:45.057Z,6.30
2023-03-21T18:19:14.025Z,6.25
2023-03-21T18:21:45.276Z,6.21
2023-03-21T18:24:14.124Z,6.13
2023-03-21T18:26:42.959Z,6.11
2023-03-21T18:32:06.952Z,5.98
2023-03-21T18:34:37.487Z,5.93
2023-03-21T18:37:08.108Z,5.90
2023-03-21T18:39:39.347Z,5.90
2023-03-21T18:42:16.635Z,5.86
2023-03-21T18:44:45.682Z,5.79
2023-03-21T18:47:14.392Z,5.74
2023-03-21T18:50:13.109Z,5.68
2023-03-21T18:52:31.289Z,5.64
2023-03-21T18:54:59.290Z,5.64
2023-03-21T18:57:36.301Z,5.60
2023-03-21T19:00:12.496Z,5.54
2023-03-21T19:02:47.749Z,5.55
2023-03-21T19:05:18.927Z,5.47
2023-03-21T19:07:48.134Z,5.48
2023-03-21T19:10:19.723Z,5.46
2023-03-21T19:12:52.706Z,5.44
2023-03-21T19:15:24.334Z,5.43
2023-03-21T19:18:34.012Z,5.40
2023-03-21T19:20:47.089Z,5.34
2023-03-21T19:23:16.272Z,5.40
2023-03-21T19:25:44.900Z,5.33
2023-03-21T19:28:18.357Z,5.30
2023-03-21T19:30:50.209Z,5.28
2023-03-21T19:33:20.150Z,5.26
2023-03-21T19:35:49.159Z,5.22
2023-03-21T19:38:17.049Z,5.19
2023-03-21T19:40:46.284Z,5.20
2023-03-21T19:43:32.222Z,5.21
2023-03-21T19:46:03.141Z,5.17
2023-03-21T19:48:31.197Z,5.15
2023-03-21T19:53:50.556Z,5.10
2023-03-21T19:56:23.005Z,5.07
2023-03-21T19:58:54.942Z,5.07
2023-03-21T20:01:24.936Z,5.07
2023-03-21T20:03:52.844Z,5.07
2023-03-21T20:06:22.641Z,5.02
2023-03-21T20:11:39.949Z,5.07
2023-03-21T20:14:07.757Z,5.06
2023-03-21T20:16:36.918Z,4.96
2023-03-21T20:19:06.233Z,4.95
2023-03-21T20:21:45.324Z,4.97
2023-03-21T20:24:16.569Z,4.97
2023-03-21T20:26:45.831Z,4.97
2023-03-21T20:30:07.481Z,4.95
2023-03-21T20:32:01.618Z,4.94
2023-03-21T20:34:30.533Z,4.92
2023-03-21T20:37:00.281Z,4.90
2023-03-21T20:39:30.080Z,4.91
2023-03-21T20:41:59.409Z,4.89
2023-03-21T20:44:51.870Z,4.89
2023-03-21T20:47:15.679Z,4.86
2023-03-21T20:49:43.435Z,4.86
2023-03-21T20:54:59.055Z,4.78
2023-03-21T20:57:30.281Z,4.83
2023-03-21T20:59:58.022Z,4.84
2023-03-21T21:02:25.775Z,4.80
2023-03-21T21:05:23.760Z,4.79
2023-03-21T21:07:42.786Z,4.83
2023-03-21T21:10:12.012Z,4.78
2023-03-21T21:12:42.333Z,4.79
2023-03-21T21:15:11.271Z,4.78
2023-03-21T21:18:05.445Z,4.79
2023-03-21T21:20:27.725Z,4.79
2023-03-21T21:23:00.679Z,4.74
2023-03-21T21:25:29.405Z,4.74
2023-03-21T21:27:57.060Z,4.66
2023-03-21T21:30:24.924Z,4.66
2023-03-21T21:32:52.740Z,4.65
2023-03-21T21:35:22.436Z,4.67
2023-03-21T21:37:51.678Z,4.66
2023-03-21T21:40:23.050Z,4.66
2023-03-21T21:42:50.946Z,4.66
2023-03-21T21:45:19.056Z,4.65
2023-03-21T21:47:46.812Z,4.63
2023-03-21T21:50:14.632Z,4.62
2023-03-21T21:52:44.106Z,4.58
2023-03-21T21:55:13.307Z,4.60
2023-03-21T21:57:41.125Z,4.60
2023-03-21T22:00:13.782Z,4.65
2023-03-21T22:02:42.690Z,4.61
2023-03-21T22:05:10.625Z,4.64
2023-03-21T22:07:39.325Z,4.63
2023-03-21T22:10:08.111Z,4.62
2023-03-21T22:12:36.228Z,4.59
2023-03-21T22:15:07.033Z,4.59
2023-03-21T22:17:35.658Z,4.62
2023-03-21T22:20:06.889Z,4.61
2023-03-21T22:22:35.122Z,4.65
2023-03-21T22:25:05.122Z,4.64
2023-03-21T22:27:33.142Z,4.59
2023-03-21T22:30:07.568Z,4.59
2023-03-21T22:32:37.550Z,4.61
2023-03-21T22:35:07.212Z,4.60
2023-03-21T22:37:38.529Z,4.59
2023-03-21T22:40:09.972Z,4.62
2023-03-21T22:42:38.248Z,4.63
2023-03-21T22:45:07.726Z,4.59
2023-03-21T22:47:35.914Z,4.59
2023-03-21T22:50:05.531Z,4.59
2023-03-21T22:52:33.394Z,4.57
2023-03-21T22:55:01.141Z,4.58
2023-03-21T22:57:30.845Z,4.56
2023-03-21T22:59:58.657Z,4.59
2023-03-21T23:02:27.264Z,4.58
2023-03-21T23:04:55.003Z,4.60
2023-03-21T23:07:23.146Z,4.63
2023-03-21T23:09:50.962Z,4.62
2023-03-21T23:12:18.659Z,4.61
2023-03-21T23:14:46.484Z,4.60
2023-03-21T23:17:14.186Z,4.58
2023-03-21T23:19:42.307Z,4.60
2023-03-21T23:22:10.082Z,4.62
2023-03-21T23:24:38.040Z,4.58
2023-03-21T23:27:06.273Z,4.57
2023-03-21T23:29:34.053Z,4.55
2023-03-21T23:32:02.120Z,4.54
2023-03-21T23:34:33.721Z,4.51
2023-03-21T23:37:01.465Z,4.48
2023-03-21T23:39:29.226Z,4.48
2023-03-21T23:41:58.729Z,4.47
2023-03-21T23:44:27.583Z,4.46
2023-03-21T23:46:55.577Z,4.47
2023-03-21T23:49:24.675Z,4.49
2023-03-21T23:51:52.456Z,4.51
2023-03-21T23:54:20.166Z,4.51
2023-03-21T23:56:47.925Z,4.51
2023-03-21T23:59:15.739Z,4.48
